Hovedside
METAR-TAF:

METAR-TAF

Lufthavner :

Visby, Gotland, Sverige

Visby lufthavn

breddegrad: 57-40N, lengdegrad: 018-21E, høyde over havet: 51 m

Gjeldene værobservasjon

Denne rapporten ble laget for 19 minutter siden, klokken 07:20 UTC
Vind 4 kt fra Øst-sørøst
Temperatur 4°C
Luftfuktighet 70%
Trykk 1027 hPa
Sikt 10 km eller mer
Brutte skyer i en høyde av 3100 ft

METAR: ESSV 240720Z 11004KT 9999 BKN031 04/M01 Q1027

Tid: 09:39 (07:39 UTC)

Varsel

Denne rapporten ble laget for 2 timer og 9 minutter siden, klokken 05:30 UTC
Varsel gyldig fra 24. klokken 06 UTC til 24. klokken 15 UTC
Vind 8 kt fra Øst
Sikt 10 km eller mer
Brutte skyer i en høyde av 3000 ft

TAF: ESSV 240530Z 2406/2415 10008KT 9999 BKN030

Værobservasjoner og værvarsel for over 4000 flyplasser (METAR- og TAF-rapporter).

Tilgjengelige stasjoner er representert av de røde og gule prikkene på kartet.

Hold musepekeren over prikken for å se navnet på stasjonen.

Klikk så for å se værobservasjoner og -varsler.

For å forandre kartet kan du klikke på den grønne knappen med svart kryss for å zoome inn, på den grønne knappen med strek for å zoome ut, eller på de grønne pilene for å se tilstøtende kart.


METAR-TAF: